92B weather

Long Lake Seaplane Base
Sinclair, Maine, United States

Public forecast

Using degrees Fahrenheit for public forecast. Weather courtesy of forecast.io.

METAR (pilot weather report)

Closest report is Northern Aroostook Regional Airport, 6.5 nm (12.0 km) NNW. Retrieved 2019/05/22 18:02 UTC (20 minutes ago):

KFVE 221802Z AUTO 36010G17KT 10SM OVC030 12/03 A3016 RMK AO2 T01220033

TAF (pilot weather forecast)

Closest forecast is Northern Aroostook Regional Airport, 6.5 nm (12.0 km) NNW. Retrieved 2019/05/22 18:36 UTC (0 seconds ago):

TAF KFVE 221735Z 2218/2318 34012G18KT P6SM OVC027 FM222000 34008KT P6SM BKN035 FM230000 34004KT P6SM SCT050 FM230400 31003KT P6SM SCT250 FM231500 00000KT P6SM SCT050